Create Custom Reports and Graphics: Custom Report

Siberia 8700'

OV

5/20/22 4:15 AM (-07:00)
Updated Every 15 Minutes
Temp 19.4 °F   29.8
RH 80 %   32
Wet Bulb 17.8 °F   22.2
Dew Pt 14.3 °F   16.1
Wind Dir ENE | 70 °
Wind Spd 34.5 mph   23.4
Wind Gust 39.9 mph   15.0
WindChill -0.1 °F   45.2
Daily Min Temp 19.4 °F   28.8
Daily Max Temp 33.0 °F   20.2

Last 24 Hours

OV-Siberia 8700'

Hourly Data | America/Los_Angeles
as of 5/20/22 4:26 AM PDT
Date & Time Temp (°F) RH (%) Dew Pt (°F) Wet Bulb (°F) Wind Dir (°) Wind Spd (mph) Wind Gust (mph) WindChill (°F) Daily Min Temp (°F) Daily Max Temp (°F)
5/20/22 - 0400 19.9 78 14.2 18.1 E | 90 33.6 41.8 2.0 19.8 33.0
5/20/22 - 0300 22.6 67 13.4 19.6 ENE | 78 24.0 36.0 8.6 22.6 33.0
5/20/22 - 0200 25.3 57 12.2 21.0 E | 91 17.0 27.3 14.8 25.3 33.0
5/20/22 - 0100 29.6 40 8.4 22.8 ENE | 78 14.4 22.2 20.7 29.1 33.0
5/20/22 - 0000 33.0 37 9.5 25.1 SSW | 194 1.0 16.3 36.2 32.8 53.3
5/19/22 - 2300 37.1 26 5.2 26.7 S | 191 18.6 28.1 28.3 37.1 53.3
5/19/22 - 2200 37.7 26 6.0 27.2 S | 179 25.4 44.8 27.2 37.6 53.3
5/19/22 - 2100 39.1 25 6.1 28.0 SSW | 203 35.9 49.0 27.4 39.0 53.3
5/19/22 - 2000 41.0 22 4.6 28.8 SSW | 206 38.5 54.9 31.0 40.9 53.3
5/19/22 - 1900 44.0 20 5.6 30.7 WSW | 238 38.8 51.5 34.4 43.8 53.3
5/19/22 - 1800 45.5 22 8.6 32.1 SSW | 213 38.4 56.8 36.8 45.4 53.3
5/19/22 - 1700 47.6 59 34.2 40.8 SSW | 194 38.9 57.8 38.2 46.0 53.3
5/19/22 - 1600 47.3 62 34.8 40.9 SSW | 203 37.6 57.8 39.6 46.0 53.3
5/19/22 - 1500 49.6 60 36.5 42.7 SSW | 198 36.1 53.5 40.5 46.0 53.3
5/19/22 - 1400 48.9 63 36.7 42.5 SSW | 196 35.2 51.1 41.8 46.0 53.3
5/19/22 - 1300 50.3 60 36.9 43.2 SSW | 202 34.8 54.0 42.4 46.0 53.3
5/19/22 - 1200 50.7 55 35.3 42.7 SW | 223 28.5 50.8 43.6 46.0 53.3
5/19/22 - 1100 50.4 54 34.4 42.1 S | 187 24.4 36.3 42.3 46.0 53.3
5/19/22 - 1000 48.2 58 34.2 41.1 S | 188 24.4 39.1 39.9 46.0 53.3
5/19/22 - 0900 47.1 58 33.0 40.0 S | 183 21.2 31.1 38.8 46.0 53.3
5/19/22 - 0800 46.6 58 32.8 39.7 S | 188 17.7 26.0 40.2 46.4 53.3
5/19/22 - 0700 47.5 54 31.9 39.8 SSW | 196 13.5 27.7 42.5 47.0 53.3
5/19/22 - 0600 47.9 51 30.6 39.4 SSW | 200 19.7 33.8 42.7 47.9 53.3
5/19/22 - 0500 49.0 48 30.3 39.9 SSW | 210 12.7 30.2 44.7 48.2 53.3
5/19/22 - 0400 49.3 48 30.7 40.2 SE | 143 13.8 22.9 43.6 48.2 53.3
Max 50.7 78 36.9 43.2 - 38.9 57.8 44.7 48.2 53.3
Avg 42.2 48 22.6 34.2 - 25.8 40.0 33.9 - -
Min 19.9 20 4.6 18.1 - 1.0 16.3 2.0 19.8 33.0

Last 30 Days

OV-Siberia 8700'

Daily Data | America/Los_Angeles
as of 5/20/22 4:26 AM PDT
Date Daily Max Temp (°F) Time of Max Temp Daily Min Temp (°F) Time of Min Temp Wind Spd (mph) Daily Max Wind (mph) Time of Max Wind Max Wind Dir (°) Wet Bulb (°F) WetB Hrs <28F (hrs)
5/19/22 53.3 0010 32.8 2358 24.2 57.8 1544 SSW | 198 37.6 3.1
5/18/22 65.6 1440 45.2 0106 11.5 40.5 1836 WSW | 254 40.7 0.0
5/17/22 59.1 1448 38.8 0705 6.2 29.8 2244 NE | 56 36.0 0.0
5/16/22 51.3 1537 40.2 0455 22.1 46.2 1313 SSE | 147 35.3 0.0
5/15/22 55.3 1312 42.2 2119 22.1 47.2 1410 S | 177 40.9 0.0
5/14/22 59.0 1522 38.8 0111 11.2 27.5 2357 SE | 145 39.0 0.0
5/13/22 45.8 1456 28.4 0302 21.6 44.5 1724 SSE | 161 31.9 8.8
5/12/22 33.9 1552 20.2 0518 24.9 55.7 1657 WSW | 243 24.1 22.9
5/11/22 28.1 1212 13.7 0304 10.3 29.1 1939 ESE | 115 19.9 24.0
5/10/22 21.5 1232 12.4 0623 12.4 41.4 0009 WSW | 245 15.9 24.0
5/9/22 19.3 1338 12.1 0503 27.0 53.5 1350 SSW | 201 14.7 24.0
5/8/22 26.0 0320 13.5 2329 41.2 92.6 1508 WSW | 251 18.5 24.0
5/7/22 37.3 1502 24.5 2339 34.4 62.3 0039 WSW | 242 27.5 12.9
5/6/22 42.9 1231 30.6 0001 45.5 83.5 1953 SW | 233 35.1 0.0
5/5/22 42.5 1427 32.6 2311 48.4 97.3 1225 SW | 221 33.3 0.0
5/4/22 54.5 1438 32.9 0528 21.3 53.0 0214 NE | 41 34.9 0.0
5/3/22 43.6 1629 17.1 0611 21.9 48.7 0713 ENE | 77 25.7 11.5
5/2/22 39.4 0001 24.2 2347 44.7 106.4 0927 SW | 218 27.7 10.6
5/1/22 40.4 2322 25.6 0925 16.7 45.2 0119 SW | 225 27.8 15.8
4/30/22 40.6 0054 30.0 2348 23.8 59.2 1446 SE | 127 32.5 0.0
4/29/22 47.9 1447 21.5 0443 12.6 31.1 0848 ENE | 69 28.6 10.6
4/28/22 30.1 1540 22.3 0740 35.6 80.8 0651 SW | 225 22.5 24.0
4/27/22 38.3 1511 27.9 2358 31.4 54.0 2343 ESE | 119 27.2 16.1
4/26/22 40.7 1451 30.5 0633 30.9 72.1 0435 WSW | 241 30.0 4.0
4/25/22 40.7 1526 32.6 0001 22.2 56.3 1455 SW | 218 30.6 1.8
4/24/22 42.7 1433 23.9 0035 16.3 47.4 0137 E | 91 28.0 12.3
4/23/22 31.1 1549 20.7 0359 15.2 38.9 2331 E | 81 25.2 18.0
4/22/22 29.3 1335 16.6 0647 14.1 37.2 0055 WNW | 297 22.5 20.9
4/21/22 23.1 1504 18.6 2317 30.0 58.5 1635 SW | 233 21.1 9.6
4/20/22 29.5 1532 20.4 0705 47.6 81.0 2248 SW | 220 25.1 18.3
Max 65.6 - 45.2 - 48.4 106.4 - - 40.9 24.0
Avg - - - - 24.9 - - - 28.7 -
Min 19.3 - 12.1 - 6.2 27.5 - - 14.7 0.0
Calm: 0.0%
Calm: 0.0%